sensor_id;sensor_type;location;lat;lon;timestamp;pressure;altitude;pressure_sealevel;temperature;humidity
21658;BME280;10990;48.174;9.782;2023-04-19T00:01:41;93990.44;;;8.20;100.00
21658;BME280;10990;48.174;9.782;2023-04-19T00:04:07;93978.91;;;8.21;100.00
21658;BME280;10990;48.174;9.782;2023-04-19T00:06:34;93990.13;;;8.15;100.00
21658;BME280;10990;48.174;9.782;2023-04-19T00:09:03;93984.22;;;8.13;100.00
21658;BME280;10990;48.174;9.782;2023-04-19T00:11:31;93978.25;;;8.19;100.00
21658;BME280;10990;48.174;9.782;2023-04-19T00:13:58;93972.69;;;8.14;100.00
21658;BME280;10990;48.174;9.782;2023-04-19T00:16:25;93972.53;;;8.15;100.00
21658;BME280;10990;48.174;9.782;2023-04-19T00:18:51;93952.91;;;8.18;100.00
21658;BME280;10990;48.174;9.782;2023-04-19T00:21:18;93955.09;;;8.14;100.00
21658;BME280;10990;48.174;9.782;2023-04-19T00:23:45;93952.09;;;8.17;100.00
21658;BME280;10990;48.174;9.782;2023-04-19T00:26:13;93943.91;;;8.12;100.00
21658;BME280;10990;48.174;9.782;2023-04-19T00:28:46;93936.66;;;8.14;100.00
21658;BME280;10990;48.174;9.782;2023-04-19T00:31:14;93930.38;;;8.15;100.00
21658;BME280;10990;48.174;9.782;2023-04-19T00:33:41;93928.94;;;8.13;100.00
21658;BME280;10990;48.174;9.782;2023-04-19T00:36:08;93926.50;;;8.11;100.00
21658;BME280;10990;48.174;9.782;2023-04-19T00:38:35;93922.75;;;8.05;100.00
21658;BME280;10990;48.174;9.782;2023-04-19T00:41:02;93926.56;;;8.03;100.00
21658;BME280;10990;48.174;9.782;2023-04-19T00:43:30;93918.09;;;8.07;100.00
21658;BME280;10990;48.174;9.782;2023-04-19T00:45:57;93914.00;;;8.05;100.00
21658;BME280;10990;48.174;9.782;2023-04-19T00:48:24;93912.53;;;8.02;100.00
21658;BME280;10990;48.174;9.782;2023-04-19T00:50:51;93865.16;;;8.02;100.00
21658;BME280;10990;48.174;9.782;2023-04-19T00:53:18;93853.38;;;7.98;100.00
21658;BME280;10990;48.174;9.782;2023-04-19T00:55:45;93839.47;;;8.04;100.00
21658;BME280;10990;48.174;9.782;2023-04-19T00:58:12;93850.22;;;8.03;100.00
21658;BME280;10990;48.174;9.782;2023-04-19T01:00:42;93843.28;;;8.02;100.00
21658;BME280;10990;48.174;9.782;2023-04-19T01:03:11;93846.63;;;7.96;100.00
21658;BME280;10990;48.174;9.782;2023-04-19T01:05:38;93832.59;;;8.03;100.00
21658;BME280;10990;48.174;9.782;2023-04-19T01:08:05;93838.94;;;7.94;100.00
21658;BME280;10990;48.174;9.782;2023-04-19T01:10:32;93837.84;;;7.89;100.00
21658;BME280;10990;48.174;9.782;2023-04-19T01:12:59;93825.66;;;7.88;100.00
21658;BME280;10990;48.174;9.782;2023-04-19T01:15:26;93815.13;;;7.88;100.00
21658;BME280;10990;48.174;9.782;2023-04-19T01:17:55;93808.03;;;7.88;100.00
21658;BME280;10990;48.174;9.782;2023-04-19T01:20:22;93805.88;;;7.92;100.00
21658;BME280;10990;48.174;9.782;2023-04-19T01:22:50;93800.63;;;7.92;100.00
21658;BME280;10990;48.174;9.782;2023-04-19T01:25:17;93792.16;;;7.96;100.00
21658;BME280;10990;48.174;9.782;2023-04-19T01:27:44;93790.72;;;7.94;100.00
21658;BME280;10990;48.174;9.782;2023-04-19T01:30:11;93786.09;;;7.96;100.00
21658;BME280;10990;48.174;9.782;2023-04-19T01:32:38;93777.91;;;7.91;100.00
21658;BME280;10990;48.174;9.782;2023-04-19T01:35:05;93772.13;;;7.95;100.00
21658;BME280;10990;48.174;9.782;2023-04-19T01:37:34;93771.91;;;7.82;100.00
21658;BME280;10990;48.174;9.782;2023-04-19T01:40:03;93766.03;;;7.80;100.00
21658;BME280;10990;48.174;9.782;2023-04-19T01:42:30;93757.31;;;7.79;100.00
21658;BME280;10990;48.174;9.782;2023-04-19T01:44:59;93752.16;;;7.86;100.00
21658;BME280;10990;48.174;9.782;2023-04-19T01:47:26;93732.63;;;7.95;100.00
21658;BME280;10990;48.174;9.782;2023-04-19T01:49:53;93735.56;;;7.85;100.00
21658;BME280;10990;48.174;9.782;2023-04-19T01:52:19;93723.94;;;7.80;100.00
21658;BME280;10990;48.174;9.782;2023-04-19T01:54:47;93710.22;;;7.84;100.00
21658;BME280;10990;48.174;9.782;2023-04-19T01:57:15;93714.03;;;7.82;100.00
21658;BME280;10990;48.174;9.782;2023-04-19T01:59:43;93705.16;;;7.83;100.00
21658;BME280;10990;48.174;9.782;2023-04-19T02:02:10;93689.00;;;7.86;100.00
21658;BME280;10990;48.174;9.782;2023-04-19T02:04:37;93697.13;;;7.76;100.00
21658;BME280;10990;48.174;9.782;2023-04-19T02:07:05;93688.00;;;7.72;100.00
21658;BME280;10990;48.174;9.782;2023-04-19T02:09:34;93682.53;;;7.74;100.00
21658;BME280;10990;48.174;9.782;2023-04-19T02:12:02;93673.94;;;7.80;100.00
21658;BME280;10990;48.174;9.782;2023-04-19T02:14:30;93673.38;;;7.70;100.00
21658;BME280;10990;48.174;9.782;2023-04-19T02:16:57;93668.94;;;7.70;100.00
21658;BME280;10990;48.174;9.782;2023-04-19T02:19:24;93665.66;;;7.68;100.00
21658;BME280;10990;48.174;9.782;2023-04-19T02:21:51;93658.41;;;7.70;100.00
21658;BME280;10990;48.174;9.782;2023-04-19T02:24:22;93659.78;;;7.66;100.00
21658;BME280;10990;48.174;9.782;2023-04-19T02:26:48;93653.06;;;7.63;100.00
21658;BME280;10990;48.174;9.782;2023-04-19T02:29:15;93640.50;;;7.66;100.00
21658;BME280;10990;48.174;9.782;2023-04-19T02:31:44;93641.34;;;7.66;100.00
21658;BME280;10990;48.174;9.782;2023-04-19T02:34:11;93640.50;;;7.66;100.00
21658;BME280;10990;48.174;9.782;2023-04-19T02:36:37;93632.19;;;7.62;100.00
21658;BME280;10990;48.174;9.782;2023-04-19T02:39:04;93612.88;;;7.70;100.00
21658;BME280;10990;48.174;9.782;2023-04-19T02:41:31;93611.25;;;7.69;100.00
21658;BME280;10990;48.174;9.782;2023-04-19T02:44:00;93600.06;;;7.67;100.00
21658;BME280;10990;48.174;9.782;2023-04-19T02:46:27;93602.50;;;7.68;100.00
21658;BME280;10990;48.174;9.782;2023-04-19T02:48:55;93594.44;;;7.70;100.00
21658;BME280;10990;48.174;9.782;2023-04-19T02:51:22;93593.38;;;7.64;100.00
21658;BME280;10990;48.174;9.782;2023-04-19T02:53:49;93591.53;;;7.64;100.00
21658;BME280;10990;48.174;9.782;2023-04-19T02:56:16;93586.13;;;7.66;100.00
21658;BME280;10990;48.174;9.782;2023-04-19T02:58:43;93590.81;;;7.56;100.00
21658;BME280;10990;48.174;9.782;2023-04-19T03:01:11;93578.13;;;7.59;100.00
21658;BME280;10990;48.174;9.782;2023-04-19T03:03:37;93576.22;;;7.53;100.00
21658;BME280;10990;48.174;9.782;2023-04-19T03:06:07;93573.31;;;7.63;100.00
21658;BME280;10990;48.174;9.782;2023-04-19T03:08:34;93552.00;;;7.58;100.00
21658;BME280;10990;48.174;9.782;2023-04-19T03:11:00;93552.56;;;7.53;100.00
21658;BME280;10990;48.174;9.782;2023-04-19T03:13:29;93540.13;;;7.62;100.00
21658;BME280;10990;48.174;9.782;2023-04-19T03:15:56;93542.47;;;7.57;100.00
21658;BME280;10990;48.174;9.782;2023-04-19T03:18:23;93531.94;;;7.57;100.00
21658;BME280;10990;48.174;9.782;2023-04-19T03:20:53;93517.06;;;7.64;100.00
21658;BME280;10990;48.174;9.782;2023-04-19T03:23:21;93422.31;;;7.57;100.00
21658;BME280;10990;48.174;9.782;2023-04-19T03:25:49;93397.81;;;7.57;100.00
21658;BME280;10990;48.174;9.782;2023-04-19T03:28:24;93389.03;;;7.50;100.00
21658;BME280;10990;48.174;9.782;2023-04-19T03:31:09;93379.16;;;7.52;100.00
21658;BME280;10990;48.174;9.782;2023-04-19T03:33:37;93373.44;;;7.48;100.00
21658;BME280;10990;48.174;9.782;2023-04-19T03:36:04;93357.13;;;7.53;100.00
21658;BME280;10990;48.174;9.782;2023-04-19T03:38:33;93348.41;;;7.52;100.00
21658;BME280;10990;48.174;9.782;2023-04-19T03:41:01;93340.69;;;7.51;100.00
21658;BME280;10990;48.174;9.782;2023-04-19T03:43:33;93337.09;;;7.52;100.00
21658;BME280;10990;48.174;9.782;2023-04-19T03:46:00;93328.19;;;7.53;100.00
21658;BME280;10990;48.174;9.782;2023-04-19T03:48:27;93317.47;;;7.54;100.00
21658;BME280;10990;48.174;9.782;2023-04-19T03:50:54;93307.81;;;7.61;100.00
21658;BME280;10990;48.174;9.782;2023-04-19T03:53:21;93314.09;;;7.60;100.00
21658;BME280;10990;48.174;9.782;2023-04-19T03:55:49;93298.91;;;7.62;100.00
21658;BME280;10990;48.174;9.782;2023-04-19T03:58:17;93305.00;;;7.63;100.00
21658;BME280;10990;48.174;9.782;2023-04-19T04:00:59;93296.28;;;7.62;100.00
21658;BME280;10990;48.174;9.782;2023-04-19T04:03:27;93297.34;;;7.68;100.00
21658;BME280;10990;48.174;9.782;2023-04-19T04:05:54;93296.09;;;7.64;100.00
21658;BME280;10990;48.174;9.782;2023-04-19T04:08:21;93309.66;;;7.61;100.00
21658;BME280;10990;48.174;9.782;2023-04-19T04:10:47;93297.72;;;7.65;100.00
21658;BME280;10990;48.174;9.782;2023-04-19T04:13:15;93306.00;;;7.62;100.00
21658;BME280;10990;48.174;9.782;2023-04-19T04:15:52;93304.38;;;7.61;100.00
21658;BME280;10990;48.174;9.782;2023-04-19T04:18:19;93300.81;;;7.69;100.00
21658;BME280;10990;48.174;9.782;2023-04-19T04:20:46;93294.78;;;7.75;100.00
21658;BME280;10990;48.174;9.782;2023-04-19T04:23:13;93287.69;;;7.75;100.00
21658;BME280;10990;48.174;9.782;2023-04-19T04:25:46;93306.88;;;7.69;100.00
21658;BME280;10990;48.174;9.782;2023-04-19T04:28:13;93315.84;;;7.53;100.00
21658;BME280;10990;48.174;9.782;2023-04-19T04:30:41;93317.84;;;7.51;100.00
21658;BME280;10990;48.174;9.782;2023-04-19T04:33:10;93312.41;;;7.53;100.00
21658;BME280;10990;48.174;9.782;2023-04-19T04:35:40;93317.66;;;7.53;100.00
21658;BME280;10990;48.174;9.782;2023-04-19T04:38:13;93304.38;;;7.61;100.00
21658;BME280;10990;48.174;9.782;2023-04-19T04:40:41;93315.47;;;7.56;100.00
21658;BME280;10990;48.174;9.782;2023-04-19T04:43:08;93315.53;;;7.63;100.00
21658;BME280;10990;48.174;9.782;2023-04-19T04:45:35;93305.44;;;7.67;100.00
21658;BME280;10990;48.174;9.782;2023-04-19T04:48:04;93315.06;;;7.59;100.00
21658;BME280;10990;48.174;9.782;2023-04-19T04:50:33;93330.56;;;7.48;100.00
21658;BME280;10990;48.174;9.782;2023-04-19T04:53:00;93325.00;;;7.57;100.00
21658;BME280;10990;48.174;9.782;2023-04-19T04:55:30;93323.72;;;7.53;100.00
21658;BME280;10990;48.174;9.782;2023-04-19T04:57:57;93333.44;;;7.53;100.00
21658;BME280;10990;48.174;9.782;2023-04-19T05:00:37;93324.78;;;7.59;100.00
21658;BME280;10990;48.174;9.782;2023-04-19T05:03:08;93324.78;;;7.59;100.00
21658;BME280;10990;48.174;9.782;2023-04-19T05:05:41;93326.22;;;7.61;100.00
21658;BME280;10990;48.174;9.782;2023-04-19T05:08:08;93336.25;;;7.51;100.00
21658;BME280;10990;48.174;9.782;2023-04-19T05:10:35;93336.25;;;7.51;100.00
21658;BME280;10990;48.174;9.782;2023-04-19T05:13:02;93339.50;;;7.53;100.00
21658;BME280;10990;48.174;9.782;2023-04-19T05:15:30;93346.34;;;7.48;100.00
21658;BME280;10990;48.174;9.782;2023-04-19T05:17:57;93339.50;;;7.53;100.00
21658;BME280;10990;48.174;9.782;2023-04-19T05:20:27;93344.13;;;7.51;100.00
21658;BME280;10990;48.174;9.782;2023-04-19T05:23:04;93332.03;;;7.57;100.00
21658;BME280;10990;48.174;9.782;2023-04-19T05:25:33;93337.31;;;7.57;100.00
21658;BME280;10990;48.174;9.782;2023-04-19T05:28:00;93340.78;;;7.57;100.00
21658;BME280;10990;48.174;9.782;2023-04-19T05:30:33;93352.59;;;7.47;100.00
21658;BME280;10990;48.174;9.782;2023-04-19T05:33:00;93350.47;;;7.57;100.00
21658;BME280;10990;48.174;9.782;2023-04-19T05:35:29;93345.66;;;7.60;100.00
21658;BME280;10990;48.174;9.782;2023-04-19T05:37:56;93349.66;;;7.56;100.00
21658;BME280;10990;48.174;9.782;2023-04-19T05:40:23;93355.66;;;7.50;100.00
21658;BME280;10990;48.174;9.782;2023-04-19T05:42:50;93350.09;;;7.60;100.00
21658;BME280;10990;48.174;9.782;2023-04-19T05:45:17;93351.91;;;7.59;100.00
21658;BME280;10990;48.174;9.782;2023-04-19T05:47:44;93353.56;;;7.60;100.00
21658;BME280;10990;48.174;9.782;2023-04-19T05:50:32;93350.34;;;7.65;100.00
21658;BME280;10990;48.174;9.782;2023-04-19T05:53:18;93351.72;;;7.61;100.00
21658;BME280;10990;48.174;9.782;2023-04-19T05:55:45;93358.34;;;7.57;100.00
21658;BME280;10990;48.174;9.782;2023-04-19T05:58:15;93359.78;;;7.59;100.00
21658;BME280;10990;48.174;9.782;2023-04-19T06:00:42;93375.16;;;7.56;100.00
21658;BME280;10990;48.174;9.782;2023-04-19T06:03:11;93374.50;;;7.54;100.00
21658;BME280;10990;48.174;9.782;2023-04-19T06:05:40;93376.88;;;7.49;100.00
21658;BME280;10990;48.174;9.782;2023-04-19T06:08:07;93356.34;;;7.59;100.00
21658;BME280;10990;48.174;9.782;2023-04-19T06:10:35;93377.09;;;7.47;100.00
21658;BME280;10990;48.174;9.782;2023-04-19T06:13:02;93371.88;;;7.54;100.00
21658;BME280;10990;48.174;9.782;2023-04-19T06:15:30;93373.59;;;7.61;100.00
21658;BME280;10990;48.174;9.782;2023-04-19T06:17:56;93370.78;;;7.63;100.00
21658;BME280;10990;48.174;9.782;2023-04-19T06:20:23;93377.41;;;7.59;100.00
21658;BME280;10990;48.174;9.782;2023-04-19T06:22:51;93376.66;;;7.65;100.00
21658;BME280;10990;48.174;9.782;2023-04-19T06:25:18;93391.94;;;7.55;100.00
21658;BME280;10990;48.174;9.782;2023-04-19T06:27:45;93403.44;;;7.54;100.00
21658;BME280;10990;48.174;9.782;2023-04-19T06:30:12;93398.06;;;7.62;100.00
21658;BME280;10990;48.174;9.782;2023-04-19T06:32:38;93395.88;;;7.66;100.00
21658;BME280;10990;48.174;9.782;2023-04-19T06:35:06;93412.50;;;7.51;100.00
21658;BME280;10990;48.174;9.782;2023-04-19T06:37:33;93404.88;;;7.56;100.00
21658;BME280;10990;48.174;9.782;2023-04-19T06:40:01;93416.69;;;7.46;100.00
21658;BME280;10990;48.174;9.782;2023-04-19T06:42:29;93410.47;;;7.47;100.00
21658;BME280;10990;48.174;9.782;2023-04-19T06:44:56;93419.72;;;7.43;100.00
21658;BME280;10990;48.174;9.782;2023-04-19T06:47:22;93419.28;;;7.39;100.00
21658;BME280;10990;48.174;9.782;2023-04-19T06:49:49;93417.00;;;7.36;100.00
21658;BME280;10990;48.174;9.782;2023-04-19T06:52:16;93410.38;;;7.40;100.00
21658;BME280;10990;48.174;9.782;2023-04-19T06:54:46;93412.34;;;7.53;100.00
21658;BME280;10990;48.174;9.782;2023-04-19T06:57:14;93420.34;;;7.45;100.00
21658;BME280;10990;48.174;9.782;2023-04-19T06:59:41;93413.91;;;7.47;100.00
21658;BME280;10990;48.174;9.782;2023-04-19T07:02:08;93428.06;;;7.46;100.00
21658;BME280;10990;48.174;9.782;2023-04-19T07:04:34;93433.38;;;7.53;100.00
21658;BME280;10990;48.174;9.782;2023-04-19T07:07:01;93441.22;;;7.46;100.00
21658;BME280;10990;48.174;9.782;2023-04-19T07:09:28;93431.94;;;7.50;100.00
21658;BME280;10990;48.174;9.782;2023-04-19T07:11:55;93438.44;;;7.54;100.00
21658;BME280;10990;48.174;9.782;2023-04-19T07:14:23;93428.19;;;7.59;100.00
21658;BME280;10990;48.174;9.782;2023-04-19T07:16:50;93436.06;;;7.59;100.00
21658;BME280;10990;48.174;9.782;2023-04-19T07:19:18;93441.16;;;7.61;100.00
21658;BME280;10990;48.174;9.782;2023-04-19T07:21:45;93450.88;;;7.60;100.00
21658;BME280;10990;48.174;9.782;2023-04-19T07:24:11;93443.84;;;7.68;100.00
21658;BME280;10990;48.174;9.782;2023-04-19T07:26:38;93429.22;;;7.80;100.00
21658;BME280;10990;48.174;9.782;2023-04-19T07:29:05;93442.00;;;7.83;100.00
21658;BME280;10990;48.174;9.782;2023-04-19T07:31:33;93435.56;;;7.85;100.00
21658;BME280;10990;48.174;9.782;2023-04-19T07:33:59;93447.50;;;7.88;100.00
21658;BME280;10990;48.174;9.782;2023-04-19T07:36:26;93457.09;;;7.74;100.00
21658;BME280;10990;48.174;9.782;2023-04-19T07:38:53;93477.69;;;7.71;100.00
21658;BME280;10990;48.174;9.782;2023-04-19T07:41:19;93481.06;;;7.64;100.00
21658;BME280;10990;48.174;9.782;2023-04-19T07:43:46;93478.97;;;7.75;100.00
21658;BME280;10990;48.174;9.782;2023-04-19T07:46:13;93490.78;;;7.64;100.00
21658;BME280;10990;48.174;9.782;2023-04-19T07:48:42;93485.94;;;7.68;100.00
21658;BME280;10990;48.174;9.782;2023-04-19T07:51:10;93490.22;;;7.69;100.00
21658;BME280;10990;48.174;9.782;2023-04-19T07:53:37;93513.53;;;7.57;100.00
21658;BME280;10990;48.174;9.782;2023-04-19T07:56:06;93494.41;;;7.63;100.00
21658;BME280;10990;48.174;9.782;2023-04-19T07:58:33;93509.81;;;7.66;100.00
21658;BME280;10990;48.174;9.782;2023-04-19T08:01:00;93500.00;;;7.75;100.00
21658;BME280;10990;48.174;9.782;2023-04-19T08:03:28;93489.00;;;7.86;100.00
21658;BME280;10990;48.174;9.782;2023-04-19T08:05:59;93521.69;;;7.62;100.00
21658;BME280;10990;48.174;9.782;2023-04-19T08:08:26;93508.44;;;7.70;100.00
21658;BME280;10990;48.174;9.782;2023-04-19T08:10:53;93513.06;;;7.83;100.00
21658;BME280;10990;48.174;9.782;2023-04-19T08:13:20;93513.50;;;7.86;100.00
21658;BME280;10990;48.174;9.782;2023-04-19T08:15:47;93506.28;;;7.95;100.00
21658;BME280;10990;48.174;9.782;2023-04-19T08:18:14;93507.25;;;8.09;100.00
21658;BME280;10990;48.174;9.782;2023-04-19T08:20:41;93521.91;;;8.18;100.00
21658;BME280;10990;48.174;9.782;2023-04-19T08:23:09;93535.28;;;8.17;100.00
21658;BME280;10990;48.174;9.782;2023-04-19T08:25:37;93536.84;;;8.11;100.00
21658;BME280;10990;48.174;9.782;2023-04-19T08:28:04;93546.34;;;8.12;100.00
21658;BME280;10990;48.174;9.782;2023-04-19T08:30:31;93563.06;;;8.04;100.00
21658;BME280;10990;48.174;9.782;2023-04-19T08:32:58;93565.91;;;8.03;100.00
21658;BME280;10990;48.174;9.782;2023-04-19T08:35:25;93556.72;;;8.35;100.00
21658;BME280;10990;48.174;9.782;2023-04-19T08:37:52;93572.34;;;8.37;100.00
21658;BME280;10990;48.174;9.782;2023-04-19T08:40:20;93578.94;;;8.47;100.00
21658;BME280;10990;48.174;9.782;2023-04-19T08:42:47;93588.09;;;8.51;100.00
21658;BME280;10990;48.174;9.782;2023-04-19T08:45:15;93616.78;;;8.40;100.00
21658;BME280;10990;48.174;9.782;2023-04-19T08:47:42;93604.91;;;8.72;100.00
21658;BME280;10990;48.174;9.782;2023-04-19T08:50:10;93615.84;;;8.90;100.00
21658;BME280;10990;48.174;9.782;2023-04-19T08:52:37;93643.47;;;8.73;100.00
21658;BME280;10990;48.174;9.782;2023-04-19T08:55:06;93658.50;;;8.79;100.00
21658;BME280;10990;48.174;9.782;2023-04-19T08:57:35;93686.59;;;8.72;100.00
21658;BME280;10990;48.174;9.782;2023-04-19T09:00:03;93702.41;;;8.72;100.00
21658;BME280;10990;48.174;9.782;2023-04-19T09:02:44;93734.47;;;8.39;100.00
21658;BME280;10990;48.174;9.782;2023-04-19T09:05:12;93724.03;;;8.46;100.00
21658;BME280;10990;48.174;9.782;2023-04-19T09:07:38;93725.00;;;8.60;100.00
21658;BME280;10990;48.174;9.782;2023-04-19T09:10:07;93728.50;;;8.67;100.00
21658;BME280;10990;48.174;9.782;2023-04-19T09:12:36;93742.78;;;8.58;100.00
21658;BME280;10990;48.174;9.782;2023-04-19T09:15:04;93748.34;;;8.63;100.00
21658;BME280;10990;48.174;9.782;2023-04-19T09:17:33;93744.22;;;8.75;100.00
21658;BME280;10990;48.174;9.782;2023-04-19T09:20:00;93759.66;;;8.78;100.00
21658;BME280;10990;48.174;9.782;2023-04-19T09:22:28;93781.69;;;8.70;100.00
21658;BME280;10990;48.174;9.782;2023-04-19T09:24:54;93787.75;;;8.71;100.00
21658;BME280;10990;48.174;9.782;2023-04-19T09:27:26;93785.03;;;8.79;100.00
21658;BME280;10990;48.174;9.782;2023-04-19T09:29:55;93806.41;;;8.55;100.00
21658;BME280;10990;48.174;9.782;2023-04-19T09:32:22;93811.22;;;8.66;100.00
21658;BME280;10990;48.174;9.782;2023-04-19T09:34:51;93819.94;;;8.66;100.00
21658;BME280;10990;48.174;9.782;2023-04-19T09:37:18;93824.09;;;8.90;100.00
21658;BME280;10990;48.174;9.782;2023-04-19T09:39:45;93836.31;;;9.13;100.00
21658;BME280;10990;48.174;9.782;2023-04-19T09:42:12;93870.00;;;8.96;100.00
21658;BME280;10990;48.174;9.782;2023-04-19T09:44:39;93953.91;;;9.07;100.00
21658;BME280;10990;48.174;9.782;2023-04-19T09:50:05;93993.34;;;9.01;100.00
21658;BME280;10990;48.174;9.782;2023-04-19T09:52:32;94018.88;;;8.85;100.00
21658;BME280;10990;48.174;9.782;2023-04-19T09:55:00;94017.00;;;8.94;100.00
21658;BME280;10990;48.174;9.782;2023-04-19T09:57:28;94028.00;;;8.97;100.00
21658;BME280;10990;48.174;9.782;2023-04-19T09:59:55;93971.53;;;8.92;100.00
21658;BME280;10990;48.174;9.782;2023-04-19T10:02:23;93983.97;;;8.98;100.00
21658;BME280;10990;48.174;9.782;2023-04-19T10:04:52;93992.97;;;9.04;100.00
21658;BME280;10990;48.174;9.782;2023-04-19T10:07:22;94003.72;;;9.02;100.00
21658;BME280;10990;48.174;9.782;2023-04-19T10:09:50;94013.91;;;9.05;100.00
21658;BME280;10990;48.174;9.782;2023-04-19T10:12:19;94025.28;;;9.06;100.00
21658;BME280;10990;48.174;9.782;2023-04-19T10:14:48;94025.75;;;9.39;100.00
21658;BME280;10990;48.174;9.782;2023-04-19T10:17:15;94040.22;;;9.28;100.00
21658;BME280;10990;48.174;9.782;2023-04-19T10:19:42;94044.03;;;9.40;100.00
21658;BME280;10990;48.174;9.782;2023-04-19T10:22:11;94062.53;;;9.40;100.00
21658;BME280;10990;48.174;9.782;2023-04-19T10:25:09;94052.28;;;9.82;100.00
21658;BME280;10990;48.174;9.782;2023-04-19T10:27:37;94073.88;;;9.85;100.00
21658;BME280;10990;48.174;9.782;2023-04-19T10:30:05;94089.28;;;10.33;100.00
21658;BME280;10990;48.174;9.782;2023-04-19T10:32:37;94122.13;;;10.82;100.00
21658;BME280;10990;48.174;9.782;2023-04-19T10:35:08;94176.47;;;10.84;100.00
21658;BME280;10990;48.174;9.782;2023-04-19T10:37:38;94193.59;;;11.31;100.00
21658;BME280;10990;48.174;9.782;2023-04-19T10:40:08;94275.41;;;10.75;100.00
21658;BME280;10990;48.174;9.782;2023-04-19T10:43:13;94252.00;;;11.08;100.00
21658;BME280;10990;48.174;9.782;2023-04-19T10:45:40;94270.72;;;11.28;100.00
21658;BME280;10990;48.174;9.782;2023-04-19T10:48:30;94347.53;;;10.84;100.00
21658;BME280;10990;48.174;9.782;2023-04-19T10:50:58;94338.59;;;10.99;100.00
21658;BME280;10990;48.174;9.782;2023-04-19T10:53:50;94361.38;;;11.00;100.00
21658;BME280;10990;48.174;9.782;2023-04-19T10:56:19;94345.47;;;11.30;100.00
21658;BME280;10990;48.174;9.782;2023-04-19T10:59:14;94395.41;;;11.04;100.00
21658;BME280;10990;48.174;9.782;2023-04-19T11:01:52;94380.41;;;11.40;100.00
21658;BME280;10990;48.174;9.782;2023-04-19T11:04:21;94395.44;;;11.40;100.00
21658;BME280;10990;48.174;9.782;2023-04-19T11:07:01;94409.22;;;11.50;100.00
21658;BME280;10990;48.174;9.782;2023-04-19T11:09:30;94404.78;;;12.08;100.00
21658;BME280;10990;48.174;9.782;2023-04-19T11:12:01;94455.75;;;12.10;100.00
21658;BME280;10990;48.174;9.782;2023-04-19T11:14:33;94508.91;;;11.73;100.00
21658;BME280;10990;48.174;9.782;2023-04-19T11:17:02;94500.78;;;11.59;100.00
21658;BME280;10990;48.174;9.782;2023-04-19T11:19:29;94482.97;;;12.19;100.00
21658;BME280;10990;48.174;9.782;2023-04-19T11:21:57;94503.03;;;12.71;100.00
21658;BME280;10990;48.174;9.782;2023-04-19T11:24:25;94553.13;;;12.60;100.00
21658;BME280;10990;48.174;9.782;2023-04-19T11:26:51;94591.72;;;12.84;100.00
21658;BME280;10990;48.174;9.782;2023-04-19T11:29:20;94647.31;;;12.92;100.00
21658;BME280;10990;48.174;9.782;2023-04-19T11:31:47;94665.22;;;13.26;100.00
21658;BME280;10990;48.174;9.782;2023-04-19T11:34:13;94740.69;;;12.81;100.00
21658;BME280;10990;48.174;9.782;2023-04-19T11:36:48;94759.38;;;12.87;100.00
21658;BME280;10990;48.174;9.782;2023-04-19T11:39:15;94798.19;;;13.24;100.00
21658;BME280;10990;48.174;9.782;2023-04-19T11:41:41;94861.28;;;12.63;100.00
21658;BME280;10990;48.174;9.782;2023-04-19T11:44:15;94858.09;;;12.53;100.00
21658;BME280;10990;48.174;9.782;2023-04-19T11:46:58;94891.94;;;12.66;100.00
21658;BME280;10990;48.174;9.782;2023-04-19T11:49:26;94872.81;;;13.00;100.00
21658;BME280;10990;48.174;9.782;2023-04-19T11:51:55;94930.53;;;12.68;100.00
21658;BME280;10990;48.174;9.782;2023-04-19T11:54:22;94967.66;;;12.53;100.00
21658;BME280;10990;48.174;9.782;2023-04-19T11:56:57;94957.34;;;12.13;100.00
21658;BME280;10990;48.174;9.782;2023-04-19T11:59:23;94975.50;;;11.61;100.00
21658;BME280;10990;48.174;9.782;2023-04-19T12:01:50;94927.75;;;11.78;100.00
21658;BME280;10990;48.174;9.782;2023-04-19T12:04:18;94942.34;;;11.65;100.00
21658;BME280;10990;48.174;9.782;2023-04-19T12:06:55;94940.50;;;11.74;100.00
21658;BME280;10990;48.174;9.782;2023-04-19T12:09:21;94939.13;;;11.55;100.00
21658;BME280;10990;48.174;9.782;2023-04-19T12:11:48;94921.31;;;11.72;100.00
21658;BME280;10990;48.174;9.782;2023-04-19T12:14:16;94926.09;;;11.37;100.00
21658;BME280;10990;48.174;9.782;2023-04-19T12:16:44;94883.47;;;11.32;100.00
21658;BME280;10990;48.174;9.782;2023-04-19T12:19:11;94824.88;;;11.58;100.00
21658;BME280;10990;48.174;9.782;2023-04-19T12:21:40;94857.97;;;11.31;100.00
21658;BME280;10990;48.174;9.782;2023-04-19T12:24:07;94870.28;;;11.24;100.00
21658;BME280;10990;48.174;9.782;2023-04-19T12:26:34;94821.84;;;11.15;100.00
21658;BME280;10990;48.174;9.782;2023-04-19T12:29:02;94794.94;;;11.04;100.00
21658;BME280;10990;48.174;9.782;2023-04-19T12:31:29;94768.75;;;10.86;100.00
21658;BME280;10990;48.174;9.782;2023-04-19T12:33:57;94725.13;;;10.82;100.00
21658;BME280;10990;48.174;9.782;2023-04-19T12:36:24;94699.97;;;10.54;100.00
21658;BME280;10990;48.174;9.782;2023-04-19T12:38:52;94677.47;;;10.59;100.00
21658;BME280;10990;48.174;9.782;2023-04-19T12:41:19;94656.75;;;10.47;100.00
21658;BME280;10990;48.174;9.782;2023-04-19T12:43:45;94656.59;;;10.41;100.00
21658;BME280;10990;48.174;9.782;2023-04-19T12:46:12;94644.16;;;10.49;100.00
21658;BME280;10990;48.174;9.782;2023-04-19T12:48:39;94640.41;;;10.36;100.00
21658;BME280;10990;48.174;9.782;2023-04-19T12:51:05;94630.69;;;10.36;100.00
21658;BME280;10990;48.174;9.782;2023-04-19T12:53:32;94611.53;;;10.26;100.00
21658;BME280;10990;48.174;9.782;2023-04-19T12:56:00;94575.34;;;10.35;100.00
21658;BME280;10990;48.174;9.782;2023-04-19T12:58:27;94576.88;;;10.29;100.00
21658;BME280;10990;48.174;9.782;2023-04-19T13:00:53;94561.34;;;10.26;100.00
21658;BME280;10990;48.174;9.782;2023-04-19T13:03:20;94537.25;;;10.21;100.00
21658;BME280;10990;48.174;9.782;2023-04-19T13:05:47;94526.22;;;10.17;100.00
21658;BME280;10990;48.174;9.782;2023-04-19T13:08:14;94509.41;;;10.10;100.00